createdAt,value
2019-02-21T00:02:17.897Z,6.90
2019-02-21T00:04:45.799Z,6.80
2019-02-21T00:07:14.384Z,6.90
2019-02-21T00:09:43.068Z,7.00
2019-02-21T00:12:11.709Z,6.80
2019-02-21T00:14:40.272Z,6.80
2019-02-21T00:17:08.857Z,6.90
2019-02-21T00:19:37.498Z,7.00
2019-02-21T00:22:06.154Z,6.70
2019-02-21T00:24:34.834Z,6.70
2019-02-21T00:27:03.424Z,6.70
2019-02-21T00:29:32.052Z,6.90
2019-02-21T00:32:00.702Z,6.90
2019-02-21T00:34:29.339Z,6.90
2019-02-21T00:36:57.923Z,6.90
2019-02-21T00:39:26.608Z,6.70
2019-02-21T00:41:55.243Z,6.50
2019-02-21T00:44:23.832Z,6.40
2019-02-21T00:46:52.530Z,6.50
2019-02-21T00:49:21.176Z,6.50
2019-02-21T00:51:49.763Z,6.60
2019-02-21T00:54:18.475Z,6.60
2019-02-21T00:56:47.059Z,6.60
2019-02-21T00:59:15.778Z,6.60
2019-02-21T01:01:44.479Z,6.60
2019-02-21T01:04:13.127Z,6.70
2019-02-21T01:06:41.773Z,6.80
2019-02-21T01:09:10.464Z,6.70
2019-02-21T01:11:39.118Z,6.70
2019-02-21T01:14:07.771Z,6.70
2019-02-21T01:16:36.484Z,6.60
2019-02-21T01:19:05.133Z,6.40
2019-02-21T01:21:33.779Z,6.40
2019-02-21T01:24:04.940Z,6.20
2019-02-21T01:26:32.805Z,6.10
2019-02-21T01:29:01.464Z,6.20
2019-02-21T01:31:30.167Z,6.20
2019-02-21T01:33:58.824Z,6.30
2019-02-21T01:36:27.479Z,6.40
2019-02-21T01:38:56.160Z,6.40
2019-02-21T01:41:24.813Z,6.40
2019-02-21T01:43:53.461Z,6.50
2019-02-21T01:46:22.162Z,6.60
2019-02-21T01:48:50.828Z,6.50
2019-02-21T01:51:19.480Z,6.40
2019-02-21T01:53:48.175Z,6.40
2019-02-21T01:56:16.827Z,6.20
2019-02-21T01:58:45.474Z,6.00
2019-02-21T02:01:14.167Z,5.90
2019-02-21T02:03:42.821Z,5.90
2019-02-21T02:06:11.468Z,5.90
2019-02-21T02:08:40.183Z,5.90
2019-02-21T02:11:08.835Z,6.00
2019-02-21T02:13:37.488Z,5.90
2019-02-21T02:16:06.190Z,5.80
2019-02-21T02:18:34.843Z,5.90
2019-02-21T02:21:03.477Z,5.90
2019-02-21T02:23:32.186Z,6.00
2019-02-21T02:26:00.829Z,6.20
2019-02-21T02:28:29.415Z,6.20
2019-02-21T02:30:58.119Z,6.20
2019-02-21T02:33:26.759Z,6.20
2019-02-21T02:35:55.410Z,6.20
2019-02-21T02:38:24.111Z,6.00
2019-02-21T02:40:52.763Z,6.00
2019-02-21T02:43:21.504Z,6.00
2019-02-21T02:45:50.219Z,6.00
2019-02-21T02:48:18.879Z,5.90
2019-02-21T02:50:47.526Z,5.80
2019-02-21T02:53:16.155Z,5.80
2019-02-21T02:55:44.800Z,5.80
2019-02-21T02:58:13.446Z,6.00
2019-02-21T03:00:42.159Z,6.10
2019-02-21T03:03:10.798Z,6.20
2019-02-21T03:05:39.488Z,6.30
2019-02-21T03:08:08.158Z,6.20
2019-02-21T03:10:36.805Z,6.20
2019-02-21T03:13:05.441Z,6.00
2019-02-21T03:15:34.135Z,5.90
2019-02-21T03:18:02.730Z,5.90
2019-02-21T03:20:31.387Z,5.90
2019-02-21T03:23:00.112Z,5.80
2019-02-21T03:25:28.780Z,5.90
2019-02-21T03:27:57.441Z,5.90
2019-02-21T03:30:26.174Z,5.90
2019-02-21T03:32:54.888Z,5.80
2019-02-21T03:35:23.548Z,5.70
2019-02-21T03:37:52.229Z,5.90
2019-02-21T03:40:20.888Z,5.90
2019-02-21T03:42:49.534Z,5.90
2019-02-21T03:45:18.246Z,5.80
2019-02-21T03:47:46.881Z,5.80
2019-02-21T03:50:15.460Z,5.70
2019-02-21T03:52:44.151Z,5.70
2019-02-21T03:55:12.822Z,5.80
2019-02-21T03:57:41.459Z,5.80
2019-02-21T04:00:11.915Z,5.80
2019-02-21T04:02:40.614Z,5.70
2019-02-21T04:05:09.276Z,5.70
2019-02-21T04:07:37.970Z,5.60
2019-02-21T04:10:08.718Z,5.60
2019-02-21T04:12:37.379Z,5.40
2019-02-21T04:15:08.682Z,5.40
2019-02-21T04:17:37.344Z,5.20
2019-02-21T04:20:07.197Z,5.20
2019-02-21T04:22:35.904Z,5.10
2019-02-21T04:25:05.751Z,5.10
2019-02-21T04:27:34.240Z,5.10
2019-02-21T04:30:02.962Z,5.00
2019-02-21T04:32:31.549Z,5.00
2019-02-21T04:35:00.327Z,5.00
2019-02-21T04:37:29.033Z,5.00
2019-02-21T04:39:57.686Z,5.10
2019-02-21T04:42:26.341Z,5.10
2019-02-21T04:44:55.144Z,5.10
2019-02-21T04:47:23.802Z,5.20
2019-02-21T04:49:52.464Z,5.20
2019-02-21T04:52:21.098Z,5.10
2019-02-21T04:54:49.724Z,5.20
2019-02-21T04:57:18.379Z,5.20
2019-02-21T04:59:47.080Z,5.10
2019-02-21T05:02:15.754Z,5.10
2019-02-21T05:04:44.408Z,5.10
2019-02-21T05:07:13.012Z,5.10
2019-02-21T05:09:41.676Z,5.10
2019-02-21T05:12:10.317Z,5.00
2019-02-21T05:14:38.988Z,5.00
2019-02-21T05:17:07.640Z,5.00
2019-02-21T05:19:36.295Z,5.00
2019-02-21T05:22:05.005Z,5.00
2019-02-21T05:24:33.645Z,5.00
2019-02-21T05:27:03.852Z,5.00
2019-02-21T05:29:32.587Z,4.90
2019-02-21T05:32:02.794Z,4.90
2019-02-21T05:34:38.826Z,4.90
2019-02-21T05:37:21.295Z,4.90
2019-02-21T05:40:07.562Z,4.90
2019-02-21T05:42:46.606Z,4.80
2019-02-21T05:45:19.652Z,4.80
2019-02-21T05:47:55.605Z,4.70
2019-02-21T05:50:31.307Z,4.70
2019-02-21T05:53:07.292Z,4.70
2019-02-21T05:55:37.558Z,4.70
2019-02-21T05:58:12.610Z,4.60
2019-02-21T06:00:48.051Z,4.70
2019-02-21T06:03:18.268Z,4.70
2019-02-21T06:05:48.499Z,4.80
2019-02-21T06:08:34.009Z,4.60
2019-02-21T06:11:06.991Z,4.70
2019-02-21T06:13:37.267Z,4.70
2019-02-21T06:16:07.472Z,4.70
2019-02-21T06:18:40.559Z,4.70
2019-02-21T06:21:26.874Z,4.80
2019-02-21T06:24:15.380Z,4.90
2019-02-21T06:26:48.594Z,4.90
2019-02-21T06:29:18.863Z,4.90
2019-02-21T06:31:47.518Z,5.10
2019-02-21T06:34:16.190Z,5.20
2019-02-21T06:36:44.824Z,5.20
2019-02-21T06:39:13.389Z,5.20
2019-02-21T06:41:42.792Z,5.20
2019-02-21T06:44:11.866Z,5.20
2019-02-21T06:46:40.523Z,5.20
2019-02-21T06:49:09.171Z,5.30
2019-02-21T06:51:37.796Z,5.40
2019-02-21T06:54:06.425Z,5.70
2019-02-21T06:56:34.941Z,5.90
2019-02-21T06:59:03.664Z,6.00
2019-02-21T07:01:32.223Z,6.10
2019-02-21T07:04:01.912Z,6.00
2019-02-21T07:06:32.181Z,6.00
2019-02-21T07:09:01.149Z,6.00
2019-02-21T07:11:29.828Z,5.80
2019-02-21T07:13:58.559Z,5.80
2019-02-21T07:16:27.114Z,6.00
2019-02-21T07:18:55.762Z,6.10
2019-02-21T07:21:24.485Z,6.30
2019-02-21T07:23:53.126Z,6.30
2019-02-21T07:26:21.774Z,6.20
2019-02-21T07:28:50.458Z,6.20
2019-02-21T07:31:28.200Z,6.20
2019-02-21T07:33:49.415Z,6.20
2019-02-21T07:36:18.119Z,6.20
2019-02-21T07:38:46.769Z,6.00
2019-02-21T07:41:18.453Z,6.20
2019-02-21T07:43:45.771Z,6.10
2019-02-21T07:46:14.356Z,6.20
2019-02-21T07:48:42.999Z,6.30
2019-02-21T07:51:13.467Z,6.30
2019-02-21T07:53:42.025Z,6.40
2019-02-21T07:56:10.667Z,6.40
2019-02-21T07:58:39.688Z,6.40
2019-02-21T08:01:08.437Z,6.40
2019-02-21T08:03:44.407Z,6.30
2019-02-21T08:06:07.442Z,6.30
2019-02-21T08:08:36.186Z,6.40
2019-02-21T08:11:07.036Z,6.60
2019-02-21T08:13:35.184Z,6.50
2019-02-21T08:16:03.848Z,6.70
2019-02-21T08:18:32.507Z,6.70
2019-02-21T08:21:01.131Z,6.70
2019-02-21T08:23:32.307Z,6.70
2019-02-21T08:26:00.080Z,6.90
2019-02-21T08:28:28.868Z,6.70
2019-02-21T08:30:58.254Z,6.80
2019-02-21T08:33:28.740Z,6.70
2019-02-21T08:35:57.981Z,6.70
2019-02-21T08:38:26.987Z,6.70
2019-02-21T08:40:57.200Z,6.80
2019-02-21T08:43:26.004Z,6.70
2019-02-21T08:45:57.385Z,6.70
2019-02-21T08:48:24.866Z,6.70
2019-02-21T08:50:55.022Z,6.80
2019-02-21T08:53:23.694Z,7.10
2019-02-21T08:55:52.267Z,7.10
2019-02-21T08:58:21.995Z,7.10
2019-02-21T09:00:50.638Z,7.20
2019-02-21T09:03:19.297Z,7.30
2019-02-21T09:05:47.914Z,7.50
2019-02-21T09:10:22.831Z,7.80
2019-02-21T09:12:51.525Z,7.80
2019-02-21T09:15:20.144Z,7.80
2019-02-21T09:17:48.796Z,7.90
2019-02-21T09:20:17.515Z,8.10
2019-02-21T09:22:46.090Z,8.30
2019-02-21T09:25:14.851Z,8.60
2019-02-21T09:27:43.564Z,8.60
2019-02-21T09:30:17.066Z,8.60
2019-02-21T09:32:45.740Z,8.70
2019-02-21T09:35:14.410Z,8.80
2019-02-21T09:37:43.054Z,8.60
2019-02-21T09:40:13.706Z,8.70
2019-02-21T09:42:42.401Z,8.90
2019-02-21T09:45:16.252Z,9.20
2019-02-21T09:47:44.884Z,9.00
2019-02-21T09:50:13.570Z,9.00
2019-02-21T09:52:42.225Z,9.00
2019-02-21T09:55:13.482Z,9.30
2019-02-21T09:57:42.111Z,9.50
2019-02-21T10:00:19.830Z,9.60
2019-02-21T10:02:48.479Z,10.20
2019-02-21T10:05:17.126Z,10.70
2019-02-21T10:07:45.712Z,11.10
2019-02-21T10:10:18.815Z,12.10
2019-02-21T10:12:47.443Z,13.00
2019-02-21T10:15:16.790Z,13.90
2019-02-21T10:17:45.490Z,14.40
2019-02-21T10:20:16.526Z,14.80
2019-02-21T10:22:45.180Z,15.80
2019-02-21T10:25:19.590Z,16.00
2019-02-21T10:27:48.199Z,16.50
2019-02-21T10:30:19.073Z,16.40
2019-02-21T10:32:47.708Z,17.00
2019-02-21T10:35:16.352Z,17.50
2019-02-21T10:37:45.015Z,17.40
2019-02-21T10:40:17.491Z,17.90
2019-02-21T10:42:46.164Z,17.60
2019-02-21T10:45:17.357Z,16.90
2019-02-21T10:47:46.066Z,16.30
2019-02-21T10:50:19.230Z,16.90
2019-02-21T10:52:48.283Z,16.90
2019-02-21T10:55:17.572Z,17.20
2019-02-21T10:57:46.165Z,17.00
2019-02-21T11:00:29.747Z,16.40
2019-02-21T11:02:58.326Z,16.60
2019-02-21T11:05:26.920Z,17.10
2019-02-21T11:07:55.633Z,17.10
2019-02-21T11:10:27.159Z,17.50
2019-02-21T11:12:55.823Z,17.70
2019-02-21T11:15:25.812Z,17.60
2019-02-21T11:17:54.448Z,17.40
2019-02-21T11:20:23.097Z,18.40
2019-02-21T11:22:51.801Z,17.80
2019-02-21T11:25:20.390Z,18.30
2019-02-21T11:27:48.985Z,17.70
2019-02-21T11:30:21.591Z,17.40
2019-02-21T11:32:50.237Z,17.50
2019-02-21T11:35:18.886Z,17.50
2019-02-21T11:37:47.770Z,18.10
2019-02-21T11:40:17.557Z,18.30
2019-02-21T11:42:46.213Z,18.20
2019-02-21T11:45:17.082Z,18.10
2019-02-21T11:47:45.741Z,17.50
2019-02-21T11:50:18.441Z,17.90
2019-02-21T11:52:47.134Z,17.70
2019-02-21T11:55:21.645Z,18.30
2019-02-21T11:57:50.363Z,18.90
2019-02-21T12:00:29.716Z,18.20
2019-02-21T12:02:58.270Z,18.00
2019-02-21T12:05:33.569Z,18.40
2019-02-21T12:07:57.144Z,18.60
2019-02-21T12:10:25.839Z,18.40
2019-02-21T12:12:54.491Z,18.10
2019-02-21T12:15:23.141Z,18.30
2019-02-21T12:17:51.789Z,18.10
2019-02-21T12:20:20.844Z,18.20
2019-02-21T12:22:49.494Z,17.70
2019-02-21T12:25:20.303Z,16.90
2019-02-21T12:27:48.889Z,16.70
2019-02-21T12:30:18.835Z,16.30
2019-02-21T12:32:47.539Z,16.70
2019-02-21T12:35:16.118Z,17.10
2019-02-21T12:37:44.781Z,17.40
2019-02-21T12:40:22.242Z,17.30
2019-02-21T12:42:50.814Z,16.90
2019-02-21T12:45:24.466Z,16.70
2019-02-21T12:47:54.071Z,16.60
2019-02-21T12:50:23.066Z,16.70
2019-02-21T12:52:51.660Z,16.60
2019-02-21T12:55:27.988Z,16.50
2019-02-21T12:57:51.957Z,16.40
2019-02-21T13:00:23.726Z,16.20
2019-02-21T13:02:52.416Z,16.40
2019-02-21T13:05:21.076Z,16.50
2019-02-21T13:07:49.742Z,16.20
2019-02-21T13:10:23.361Z,16.10
2019-02-21T13:12:52.020Z,16.20
2019-02-21T13:15:20.677Z,16.30
2019-02-21T13:17:51.110Z,16.40
2019-02-21T13:20:19.539Z,16.50
2019-02-21T13:22:48.200Z,16.70
2019-02-21T13:25:18.601Z,16.80
2019-02-21T13:27:47.263Z,16.80
2019-02-21T13:30:17.116Z,16.70
2019-02-21T13:32:45.743Z,16.40
2019-02-21T13:35:14.398Z,16.10
2019-02-21T13:37:43.043Z,15.80
2019-02-21T13:40:16.239Z,15.70
2019-02-21T13:42:44.932Z,15.70
2019-02-21T13:45:17.163Z,15.60
2019-02-21T13:47:45.173Z,15.80
2019-02-21T13:50:16.474Z,16.10
2019-02-21T13:52:45.058Z,16.50
2019-02-21T13:55:13.770Z,16.60
2019-02-21T13:57:42.362Z,16.60
2019-02-21T14:00:19.266Z,16.80
2019-02-21T14:02:47.832Z,16.90
2019-02-21T14:05:16.474Z,17.00
2019-02-21T14:07:45.185Z,16.70
2019-02-21T14:10:14.531Z,16.70
2019-02-21T14:12:43.203Z,16.60
2019-02-21T14:15:17.914Z,16.60
2019-02-21T14:17:46.827Z,16.70
2019-02-21T14:20:15.646Z,16.80
2019-02-21T14:22:44.355Z,16.70
2019-02-21T14:25:13.006Z,16.60
2019-02-21T14:27:43.240Z,16.50
2019-02-21T14:30:19.374Z,16.40
2019-02-21T14:32:47.954Z,16.30
2019-02-21T14:35:16.619Z,16.30
2019-02-21T14:37:45.297Z,16.30
2019-02-21T14:40:15.651Z,16.10
2019-02-21T14:42:44.303Z,16.10
2019-02-21T14:45:24.137Z,16.00
2019-02-21T14:47:52.786Z,16.10
2019-02-21T14:50:21.370Z,16.10
2019-02-21T14:52:50.073Z,16.00
2019-02-21T14:55:18.718Z,16.00
2019-02-21T14:57:47.382Z,16.00
2019-02-21T15:00:21.797Z,16.00
2019-02-21T15:02:50.444Z,15.80
2019-02-21T15:05:19.490Z,15.80
2019-02-21T15:07:48.334Z,15.70
2019-02-21T15:10:16.941Z,15.70
2019-02-21T15:12:45.605Z,15.50
2019-02-21T15:15:22.799Z,15.40
2019-02-21T15:17:51.439Z,15.20
2019-02-21T15:20:20.097Z,15.20
2019-02-21T15:22:48.792Z,15.10
2019-02-21T15:25:17.461Z,15.10
2019-02-21T15:27:46.137Z,15.10
2019-02-21T15:30:21.942Z,15.10
2019-02-21T15:32:50.514Z,15.10
2019-02-21T15:35:19.737Z,15.00
2019-02-21T15:37:48.679Z,14.90
2019-02-21T15:40:17.244Z,14.80
2019-02-21T15:42:45.899Z,14.80
2019-02-21T15:45:22.897Z,14.80
2019-02-21T15:47:47.891Z,14.80
2019-02-21T15:50:19.557Z,14.70
2019-02-21T15:52:47.446Z,14.70
2019-02-21T15:55:20.759Z,14.60
2019-02-21T15:57:49.407Z,14.60
2019-02-21T16:00:22.755Z,14.50
2019-02-21T16:02:51.406Z,14.50
2019-02-21T16:05:20.071Z,14.40
2019-02-21T16:07:48.771Z,14.40
2019-02-21T16:10:24.901Z,14.30
2019-02-21T16:12:53.578Z,14.30
2019-02-21T16:15:22.331Z,14.10
2019-02-21T16:17:50.854Z,14.00
2019-02-21T16:20:20.899Z,13.80
2019-02-21T16:22:49.534Z,13.70
2019-02-21T16:25:29.314Z,13.70
2019-02-21T16:27:57.970Z,13.60
2019-02-21T16:30:26.608Z,13.50
2019-02-21T16:32:55.289Z,13.40
2019-02-21T16:35:23.878Z,13.30
2019-02-21T16:37:52.481Z,13.20
2019-02-21T16:40:21.173Z,13.10
2019-02-21T16:42:49.818Z,13.10
2019-02-21T16:45:19.966Z,13.00
2019-02-21T16:47:48.677Z,12.90
2019-02-21T16:50:28.829Z,12.80
2019-02-21T16:52:47.536Z,12.70
2019-02-21T16:55:21.824Z,12.60
2019-02-21T16:57:50.483Z,12.50
2019-02-21T17:00:20.341Z,12.40
2019-02-21T17:02:49.050Z,12.30
2019-02-21T17:05:17.628Z,12.20
2019-02-21T17:07:46.269Z,12.10
2019-02-21T17:10:16.390Z,12.10
2019-02-21T17:12:45.035Z,12.00
2019-02-21T17:15:14.890Z,12.00
2019-02-21T17:17:43.571Z,11.90
2019-02-21T17:20:14.436Z,11.80
2019-02-21T17:22:43.082Z,11.80
2019-02-21T17:25:13.986Z,11.70
2019-02-21T17:27:42.645Z,11.70
2019-02-21T17:30:18.398Z,11.60
2019-02-21T17:32:46.995Z,11.60
2019-02-21T17:35:15.658Z,11.50
2019-02-21T17:37:44.344Z,11.50
2019-02-21T17:40:23.539Z,11.40
2019-02-21T17:42:52.252Z,11.40
2019-02-21T17:45:20.893Z,11.40
2019-02-21T17:47:49.552Z,11.40
2019-02-21T17:50:19.255Z,11.30
2019-02-21T17:52:47.918Z,11.30
2019-02-21T17:55:17.280Z,11.20
2019-02-21T17:57:45.990Z,11.10
2019-02-21T18:00:28.107Z,11.00
2019-02-21T18:02:56.881Z,11.00
2019-02-21T18:05:25.515Z,10.90
2019-02-21T18:07:54.176Z,10.80
2019-02-21T18:10:22.874Z,10.80
2019-02-21T18:12:51.524Z,10.80
2019-02-21T18:15:20.216Z,10.70
2019-02-21T18:17:49.014Z,10.70
2019-02-21T18:20:17.668Z,10.70
2019-02-21T18:22:46.304Z,10.60
2019-02-21T18:25:18.134Z,10.60
2019-02-21T18:27:46.882Z,10.60
2019-02-21T18:30:18.208Z,10.50
2019-02-21T18:32:46.928Z,10.50
2019-02-21T18:35:15.578Z,10.40
2019-02-21T18:37:47.605Z,10.40
2019-02-21T18:40:34.065Z,10.30
2019-02-21T18:43:05.672Z,10.20
2019-02-21T18:45:34.408Z,10.20
2019-02-21T18:48:03.106Z,10.10
2019-02-21T18:50:38.283Z,10.00
2019-02-21T18:53:02.041Z,10.00
2019-02-21T18:55:30.725Z,10.10
2019-02-21T18:58:00.951Z,10.00
2019-02-21T19:00:29.692Z,9.90
2019-02-21T19:02:58.408Z,9.80
2019-02-21T19:05:35.253Z,9.80
2019-02-21T19:08:04.751Z,9.70
2019-02-21T19:10:27.800Z,9.70
2019-02-21T19:12:56.462Z,9.50
2019-02-21T19:15:26.664Z,9.50
2019-02-21T19:17:55.463Z,9.50
2019-02-21T19:20:24.222Z,9.50
2019-02-21T19:22:52.864Z,9.50
2019-02-21T19:25:21.577Z,9.60
2019-02-21T19:27:50.220Z,9.60
2019-02-21T19:30:28.136Z,9.50
2019-02-21T19:32:56.868Z,9.50
2019-02-21T19:35:27.088Z,9.50
2019-02-21T19:37:55.782Z,9.50
2019-02-21T19:40:24.531Z,9.50
2019-02-21T19:42:55.727Z,9.50
2019-02-21T19:45:24.489Z,9.40
2019-02-21T19:47:53.137Z,9.40
2019-02-21T19:50:21.782Z,9.30
2019-02-21T19:52:50.476Z,9.20
2019-02-21T19:55:19.119Z,9.20
2019-02-21T19:57:47.872Z,9.10
2019-02-21T20:00:21.000Z,9.10
2019-02-21T20:02:49.660Z,9.10
2019-02-21T20:05:18.307Z,9.10
2019-02-21T20:07:47.009Z,9.00
2019-02-21T20:10:15.650Z,9.00
2019-02-21T20:12:44.288Z,9.00
2019-02-21T20:15:13.004Z,9.00
2019-02-21T20:17:41.669Z,8.90
2019-02-21T20:20:22.165Z,8.90
2019-02-21T20:22:50.815Z,8.90
2019-02-21T20:25:19.465Z,8.90
2019-02-21T20:27:48.162Z,8.90
2019-02-21T20:30:18.412Z,8.80
2019-02-21T20:32:49.873Z,8.70
2019-02-21T20:35:18.572Z,8.70
2019-02-21T20:37:47.228Z,8.70
2019-02-21T20:40:15.974Z,8.70
2019-02-21T20:42:44.677Z,8.60
2019-02-21T20:45:14.821Z,8.50
2019-02-21T20:47:43.461Z,8.50
2019-02-21T20:50:12.970Z,8.50
2019-02-21T20:52:41.614Z,8.50
2019-02-21T20:55:11.392Z,8.50
2019-02-21T20:57:40.081Z,8.50
2019-02-21T21:00:19.195Z,8.50
2019-02-21T21:02:48.031Z,8.60
2019-02-21T21:05:16.899Z,8.60
2019-02-21T21:07:45.542Z,8.60
2019-02-21T21:10:15.856Z,8.60
2019-02-21T21:12:44.486Z,8.70
2019-02-21T21:15:14.640Z,8.70
2019-02-21T21:17:43.373Z,8.70
2019-02-21T21:20:17.036Z,8.70
2019-02-21T21:22:43.401Z,8.70
2019-02-21T21:25:17.081Z,8.70
2019-02-21T21:27:45.736Z,8.70
2019-02-21T21:30:15.972Z,8.60
2019-02-21T21:32:44.671Z,8.60
2019-02-21T21:35:13.317Z,8.60
2019-02-21T21:37:41.971Z,8.50
2019-02-21T21:40:13.175Z,8.40
2019-02-21T21:42:41.826Z,8.40
2019-02-21T21:45:13.276Z,8.30
2019-02-21T21:47:42.027Z,8.30
2019-02-21T21:50:16.210Z,8.30
2019-02-21T21:52:44.898Z,8.20
2019-02-21T21:55:13.596Z,8.20
2019-02-21T21:57:42.272Z,8.10
2019-02-21T22:00:13.381Z,8.10
2019-02-21T22:02:42.074Z,8.10
2019-02-21T22:05:10.727Z,8.10
2019-02-21T22:07:39.374Z,8.00
2019-02-21T22:10:10.633Z,8.00
2019-02-21T22:12:39.292Z,8.00
2019-02-21T22:15:19.346Z,8.00
2019-02-21T22:17:47.935Z,8.10
2019-02-21T22:20:16.602Z,8.10
2019-02-21T22:22:45.297Z,8.10
2019-02-21T22:25:14.425Z,8.00
2019-02-21T22:27:43.074Z,8.00
2019-02-21T22:30:17.620Z,8.00
2019-02-21T22:32:46.272Z,8.00
2019-02-21T22:35:14.906Z,7.90
2019-02-21T22:37:43.611Z,7.90
2019-02-21T22:40:15.107Z,7.90
2019-02-21T22:42:43.748Z,7.90
2019-02-21T22:45:12.491Z,7.80
2019-02-21T22:47:41.138Z,7.90
2019-02-21T22:50:15.685Z,8.00
2019-02-21T22:52:44.369Z,8.00
2019-02-21T22:55:13.008Z,8.00
2019-02-21T22:57:41.651Z,8.00
2019-02-21T23:00:48.131Z,7.90
2019-02-21T23:03:17.604Z,7.90
2019-02-21T23:06:01.815Z,7.80
2019-02-21T23:08:45.274Z,7.80
2019-02-21T23:11:13.977Z,7.80
2019-02-21T23:13:42.611Z,7.80
2019-02-21T23:16:11.289Z,7.90
2019-02-21T23:18:40.000Z,7.80
2019-02-21T23:21:08.686Z,7.80
2019-02-21T23:23:37.719Z,7.70
2019-02-21T23:26:06.440Z,7.80
2019-02-21T23:28:35.024Z,7.70
2019-02-21T23:31:03.668Z,7.70
2019-02-21T23:33:33.896Z,7.70
2019-02-21T23:36:02.547Z,7.60
2019-02-21T23:38:31.194Z,7.80
2019-02-21T23:40:59.903Z,7.80
2019-02-21T23:43:28.560Z,7.80
2019-02-21T23:45:57.211Z,7.70
2019-02-21T23:48:25.906Z,7.80
2019-02-21T23:50:54.566Z,7.90
2019-02-21T23:53:23.199Z,7.90
2019-02-21T23:55:51.902Z,7.90
2019-02-21T23:58:20.554Z,7.80
